createdAt,value
2022-11-18T00:01:41.411Z,97719.95
2022-11-18T00:04:10.012Z,97717.88
2022-11-18T00:06:37.773Z,97716.16
2022-11-18T00:09:06.272Z,97718.24
2022-11-18T00:11:52.726Z,97724.05
2022-11-18T00:14:24.280Z,97727.79
2022-11-18T00:17:04.789Z,97734.61
2022-11-18T00:19:38.541Z,97735.77
2022-11-18T00:22:11.513Z,97731.00
2022-11-18T00:24:39.829Z,97731.38
2022-11-18T00:27:07.819Z,97728.64
2022-11-18T00:29:35.545Z,97727.86
2022-11-18T00:32:03.505Z,97736.00
2022-11-18T00:34:31.440Z,97738.36
2022-11-18T00:36:59.424Z,97732.32
2022-11-18T00:39:27.436Z,97730.20
2022-11-18T00:42:14.123Z,97729.20
2022-11-18T00:44:42.082Z,97722.35
2022-11-18T00:47:10.010Z,97718.40
2022-11-18T00:49:37.743Z,97723.69
2022-11-18T00:52:06.734Z,97714.99
2022-11-18T00:54:34.731Z,97712.20
2022-11-18T00:57:04.601Z,97706.05
2022-11-18T00:59:32.466Z,97705.08
2022-11-18T01:02:00.178Z,97699.30
2022-11-18T01:04:28.309Z,97698.71
2022-11-18T01:06:56.217Z,97693.58
2022-11-18T01:09:24.453Z,97693.17
2022-11-18T01:12:10.802Z,97692.63
2022-11-18T01:14:38.578Z,97696.60
2022-11-18T01:17:06.593Z,97694.19
2022-11-18T01:19:36.362Z,97690.68
2022-11-18T01:22:04.765Z,97690.31
2022-11-18T01:24:34.268Z,97688.83
2022-11-18T01:27:02.760Z,97688.45
2022-11-18T01:29:30.741Z,97683.80
2022-11-18T01:34:46.691Z,97679.48
2022-11-18T01:37:14.738Z,97674.77
2022-11-18T01:39:42.487Z,97677.76
2022-11-18T01:42:17.631Z,97675.06
2022-11-18T01:45:30.454Z,97673.40
2022-11-18T01:48:03.193Z,97665.65
2022-11-18T01:50:33.297Z,97664.66
2022-11-18T01:53:07.995Z,97660.67
2022-11-18T01:55:41.488Z,97651.18
2022-11-18T01:58:27.969Z,97655.98
2022-11-18T02:00:55.834Z,97658.17
2022-11-18T02:03:25.676Z,97655.15
2022-11-18T02:05:55.193Z,97657.05
2022-11-18T02:08:23.701Z,97657.64
2022-11-18T02:10:51.619Z,97657.33
2022-11-18T02:13:19.964Z,97659.20
2022-11-18T02:15:53.569Z,97659.10
2022-11-18T02:18:47.865Z,97659.44
2022-11-18T02:21:39.451Z,97664.88
2022-11-18T02:24:40.265Z,97670.48
2022-11-18T02:27:18.326Z,97669.31
2022-11-18T02:29:58.930Z,97670.97
2022-11-18T02:32:33.832Z,97666.57
2022-11-18T02:35:11.259Z,97658.56
2022-11-18T02:38:00.659Z,97655.23
2022-11-18T02:40:33.705Z,97652.50
2022-11-18T02:43:26.670Z,97649.95
2022-11-18T02:46:00.475Z,97648.59
2022-11-18T02:48:32.931Z,97646.77
2022-11-18T02:51:03.988Z,97642.95
2022-11-18T02:53:33.807Z,97638.59
2022-11-18T02:56:04.349Z,97638.31
2022-11-18T02:58:32.061Z,97635.50
2022-11-18T03:01:01.963Z,97631.89
2022-11-18T03:03:31.990Z,97636.45
2022-11-18T03:06:16.772Z,97632.30
2022-11-18T03:08:55.686Z,97625.30
2022-11-18T03:11:27.186Z,97616.98
2022-11-18T03:14:06.058Z,97612.55
2022-11-18T03:16:49.431Z,97603.77
2022-11-18T03:19:41.401Z,97597.11
2022-11-18T03:22:26.106Z,97589.38
2022-11-18T03:25:20.229Z,97591.02
2022-11-18T03:28:01.044Z,97592.98
2022-11-18T03:30:31.474Z,97597.88
2022-11-18T03:33:06.794Z,97598.08
2022-11-18T03:35:37.751Z,97593.80
2022-11-18T03:38:12.167Z,97593.08
2022-11-18T03:40:46.748Z,97588.08
2022-11-18T03:43:22.575Z,97586.36
2022-11-18T03:46:02.118Z,97587.31
2022-11-18T03:48:34.694Z,97585.40
2022-11-18T03:51:08.784Z,97588.08
2022-11-18T03:53:50.991Z,97591.00
2022-11-18T03:56:26.250Z,97590.09
2022-11-18T03:59:00.647Z,97591.04
2022-11-18T04:01:35.876Z,97585.52
2022-11-18T04:04:05.188Z,97583.84
2022-11-18T04:06:48.452Z,97583.15
2022-11-18T04:09:25.961Z,97577.00
2022-11-18T04:12:02.832Z,97575.52
2022-11-18T04:14:43.440Z,97576.27
2022-11-18T04:17:14.904Z,97581.79
2022-11-18T04:19:43.393Z,97587.30
2022-11-18T04:22:12.185Z,97584.77
2022-11-18T04:24:40.971Z,97582.73
2022-11-18T04:27:09.493Z,97588.64
2022-11-18T04:29:37.231Z,97587.05
2022-11-18T04:32:06.213Z,97590.05
2022-11-18T04:34:34.151Z,97590.60
2022-11-18T04:37:01.905Z,97580.86
2022-11-18T04:39:29.647Z,97577.02
2022-11-18T04:41:57.494Z,97575.40
2022-11-18T04:44:28.725Z,97574.41
2022-11-18T04:46:58.487Z,97575.09
2022-11-18T04:49:28.162Z,97572.78
2022-11-18T04:51:57.056Z,97575.02
2022-11-18T04:54:26.937Z,97573.64
2022-11-18T04:56:55.818Z,97577.11
2022-11-18T04:59:27.204Z,97575.52
2022-11-18T05:01:56.578Z,97577.74
2022-11-18T05:04:27.847Z,97582.27
2022-11-18T05:06:56.257Z,97581.48
2022-11-18T05:09:30.270Z,97580.35
2022-11-18T05:12:19.920Z,97577.39
2022-11-18T05:14:50.535Z,97575.67
2022-11-18T05:17:19.643Z,97576.10
2022-11-18T05:19:47.659Z,97583.39
2022-11-18T05:22:16.000Z,97593.27
2022-11-18T05:24:44.029Z,97595.85
2022-11-18T05:27:13.086Z,97591.06
2022-11-18T05:29:41.035Z,97594.66
2022-11-18T05:32:09.639Z,97599.04
2022-11-18T05:34:37.535Z,97599.88
2022-11-18T05:37:05.479Z,97600.17
2022-11-18T05:39:34.225Z,97597.23
2022-11-18T05:42:21.364Z,97596.44
2022-11-18T05:44:57.731Z,97590.45
2022-11-18T05:47:27.421Z,97587.06
2022-11-18T05:49:55.512Z,97588.35
2022-11-18T05:52:23.291Z,97586.73
2022-11-18T05:54:51.655Z,97584.99
2022-11-18T05:57:19.405Z,97585.95
2022-11-18T05:59:47.156Z,97583.77
2022-11-18T06:02:20.525Z,97585.17
2022-11-18T06:05:00.050Z,97591.99
2022-11-18T06:07:30.296Z,97593.58
2022-11-18T06:10:05.588Z,97597.79
2022-11-18T06:12:43.017Z,97596.76
2022-11-18T06:15:28.570Z,97604.29
2022-11-18T06:18:06.583Z,97615.14
2022-11-18T06:20:36.691Z,97613.43
2022-11-18T06:23:06.038Z,97616.79
2022-11-18T06:25:39.221Z,97615.96
2022-11-18T06:28:11.463Z,97624.50
2022-11-18T06:30:40.372Z,97623.73
2022-11-18T06:33:09.304Z,97623.89
2022-11-18T06:35:37.068Z,97623.23
2022-11-18T06:38:04.906Z,97627.23
2022-11-18T06:40:34.943Z,97629.65
2022-11-18T06:43:30.218Z,97634.60
2022-11-18T06:46:19.178Z,97639.19
2022-11-18T06:48:48.022Z,97647.63
2022-11-18T06:51:16.821Z,97643.38
2022-11-18T06:53:44.562Z,97647.25
2022-11-18T06:56:16.717Z,97653.61
2022-11-18T06:58:46.599Z,97656.33
2022-11-18T07:01:14.665Z,97658.46
2022-11-18T07:03:44.891Z,97652.80
2022-11-18T07:06:16.270Z,97648.52
2022-11-18T07:08:45.126Z,97649.41
2022-11-18T07:11:16.748Z,97653.80
2022-11-18T07:13:46.060Z,97652.23
2022-11-18T07:16:17.609Z,97646.36
2022-11-18T07:18:49.596Z,97644.91
2022-11-18T07:21:25.857Z,97648.92
2022-11-18T07:23:56.376Z,97642.08
2022-11-18T07:26:24.867Z,97639.77
2022-11-18T07:28:54.450Z,97638.68
2022-11-18T07:31:22.546Z,97640.76
2022-11-18T07:33:55.243Z,97638.27
2022-11-18T07:36:27.786Z,97636.10
2022-11-18T07:39:00.117Z,97636.03
2022-11-18T07:41:30.094Z,97629.42
2022-11-18T07:44:01.110Z,97619.84
2022-11-18T07:46:30.638Z,97617.70
2022-11-18T07:49:00.971Z,97616.38
2022-11-18T07:51:32.776Z,97613.91
2022-11-18T07:54:01.749Z,97609.77
2022-11-18T07:56:29.530Z,97603.35
2022-11-18T07:58:57.325Z,97597.29
2022-11-18T08:01:30.923Z,97597.67
2022-11-18T08:04:05.382Z,97600.79
2022-11-18T08:06:35.196Z,97602.24
2022-11-18T08:09:04.656Z,97603.10
2022-11-18T08:11:33.137Z,97598.35
2022-11-18T08:14:01.438Z,97596.17
2022-11-18T08:16:30.093Z,97595.75
2022-11-18T08:18:59.828Z,97594.97
2022-11-18T08:21:27.651Z,97590.91
2022-11-18T08:23:57.585Z,97591.04
2022-11-18T08:26:26.974Z,97589.44
2022-11-18T08:28:55.288Z,97584.63
2022-11-18T08:31:28.454Z,97589.98
2022-11-18T08:34:07.078Z,97601.32
2022-11-18T08:36:37.617Z,97608.67
2022-11-18T08:39:08.700Z,97612.48
2022-11-18T08:41:39.206Z,97611.84
2022-11-18T08:44:10.321Z,97616.95
2022-11-18T08:46:38.386Z,97617.81
2022-11-18T08:49:06.478Z,97619.97
2022-11-18T08:51:34.480Z,97622.88
2022-11-18T08:54:02.496Z,97629.52
2022-11-18T08:56:31.397Z,97625.30
2022-11-18T08:59:02.110Z,97621.48
2022-11-18T09:01:30.038Z,97620.90
2022-11-18T09:03:58.259Z,97620.14
2022-11-18T09:06:30.602Z,97621.66
2022-11-18T09:09:02.082Z,97629.10
2022-11-18T09:11:35.588Z,97634.02
2022-11-18T09:16:51.693Z,97632.26
2022-11-18T09:22:08.692Z,97616.39
2022-11-18T09:24:37.555Z,97612.73
2022-11-18T09:27:12.144Z,97612.36
2022-11-18T09:29:43.897Z,97614.34
2022-11-18T09:32:12.372Z,97616.66
2022-11-18T09:34:40.129Z,97615.23
2022-11-18T09:37:08.318Z,97618.38
2022-11-18T09:39:37.459Z,97622.70
2022-11-18T09:42:26.973Z,97631.30
2022-11-18T09:45:11.835Z,97635.61
2022-11-18T09:47:41.487Z,97631.95
2022-11-18T09:50:47.177Z,97631.09
2022-11-18T09:53:18.766Z,97629.88
2022-11-18T09:55:48.171Z,97631.40
2022-11-18T09:58:21.758Z,97627.98
2022-11-18T10:00:49.711Z,97620.17
2022-11-18T10:03:29.115Z,97621.10
2022-11-18T10:06:12.519Z,97633.54
2022-11-18T10:09:05.902Z,97635.05
2022-11-18T10:11:47.592Z,97641.59
2022-11-18T10:14:44.699Z,97643.91
2022-11-18T10:17:31.513Z,97643.35
2022-11-18T10:20:10.496Z,97640.44
2022-11-18T10:22:56.182Z,97640.61
2022-11-18T10:25:24.433Z,97637.13
2022-11-18T10:27:52.895Z,97636.34
2022-11-18T10:30:26.266Z,97642.40
2022-11-18T10:33:04.540Z,97637.30
2022-11-18T10:35:36.246Z,97636.89
2022-11-18T10:38:13.149Z,97632.96
2022-11-18T10:40:49.831Z,97627.73
2022-11-18T10:43:45.635Z,97619.26
2022-11-18T10:46:31.190Z,97626.80
2022-11-18T10:49:11.161Z,97631.44
2022-11-18T10:51:42.667Z,97636.20
2022-11-18T10:54:20.031Z,97637.27
2022-11-18T10:56:57.742Z,97633.63
2022-11-18T10:59:56.899Z,97636.67
2022-11-18T11:02:41.487Z,97642.58
2022-11-18T11:05:23.613Z,97630.60
2022-11-18T11:08:36.242Z,97624.17
2022-11-18T11:11:05.395Z,97628.50
2022-11-18T11:13:39.032Z,97636.61
2022-11-18T11:16:07.431Z,97643.33
2022-11-18T11:18:41.778Z,97635.44
2022-11-18T11:21:14.346Z,97634.80
2022-11-18T11:23:43.808Z,97632.11
2022-11-18T11:30:01.256Z,97636.59
2022-11-18T11:32:43.702Z,97645.30
2022-11-18T11:35:20.359Z,97654.98
2022-11-18T11:37:55.805Z,97652.20
2022-11-18T11:40:55.919Z,97653.26
2022-11-18T11:43:55.599Z,97642.45
2022-11-18T11:47:27.294Z,97637.33
2022-11-18T11:50:02.168Z,97644.76
2022-11-18T11:52:43.506Z,97648.06
2022-11-18T11:55:50.010Z,97655.19
2022-11-18T11:58:33.208Z,97652.79
2022-11-18T12:01:14.380Z,97650.16
2022-11-18T12:03:53.508Z,97648.48
2022-11-18T12:06:21.973Z,97647.90
2022-11-18T12:09:08.006Z,97646.66
2022-11-18T12:11:55.886Z,97656.98
2022-11-18T12:14:46.715Z,97656.42
2022-11-18T12:17:21.767Z,97664.43
2022-11-18T12:19:49.728Z,97661.34
2022-11-18T12:22:17.493Z,97656.52
2022-11-18T12:24:45.227Z,97652.25
2022-11-18T12:27:34.795Z,97656.56
2022-11-18T12:30:04.506Z,97651.20
2022-11-18T12:32:58.048Z,97647.73
2022-11-18T12:35:28.737Z,97654.27
2022-11-18T12:37:56.444Z,97651.19
2022-11-18T12:40:48.869Z,97647.52
2022-11-18T12:43:50.847Z,97643.54
2022-11-18T12:46:49.597Z,97646.07
2022-11-18T12:49:23.732Z,97648.20
2022-11-18T12:51:59.752Z,97649.63
2022-11-18T12:54:28.044Z,97655.21
2022-11-18T12:57:00.296Z,97659.67
2022-11-18T12:59:36.883Z,97660.09
2022-11-18T13:02:12.023Z,97672.05
2022-11-18T13:04:45.827Z,97674.76
2022-11-18T13:07:37.735Z,97670.89
2022-11-18T13:10:29.609Z,97679.04
2022-11-18T13:12:57.749Z,97687.05
2022-11-18T13:16:04.859Z,97679.55
2022-11-18T13:18:32.650Z,97683.34
2022-11-18T13:21:20.783Z,97688.18
2022-11-18T13:24:00.397Z,97691.72
2022-11-18T13:26:32.570Z,97695.16
2022-11-18T13:29:37.752Z,97693.00
2022-11-18T13:32:21.064Z,97696.13
2022-11-18T13:34:55.163Z,97704.96
2022-11-18T13:37:29.510Z,97707.98
2022-11-18T13:39:57.936Z,97705.61
2022-11-18T13:42:34.673Z,97706.48
2022-11-18T13:45:03.801Z,97711.66
2022-11-18T13:47:45.372Z,97715.61
2022-11-18T13:50:15.458Z,97720.45
2022-11-18T13:53:02.041Z,97725.11
2022-11-18T13:55:36.860Z,97732.16
2022-11-18T13:59:02.500Z,97731.17
2022-11-18T14:01:33.826Z,97730.29
2022-11-18T14:04:05.367Z,97732.80
2022-11-18T14:06:41.361Z,97730.63
2022-11-18T14:09:15.596Z,97731.30
2022-11-18T14:11:57.561Z,97737.58
2022-11-18T14:14:38.125Z,97736.13
2022-11-18T14:17:21.859Z,97740.48
2022-11-18T14:19:53.471Z,97747.98
2022-11-18T14:22:26.395Z,97747.58
2022-11-18T14:25:00.865Z,97748.85
2022-11-18T14:27:36.747Z,97745.79
2022-11-18T14:30:23.459Z,97736.13
2022-11-18T14:33:15.017Z,97733.71
2022-11-18T14:36:14.549Z,97734.58
2022-11-18T14:39:11.233Z,97730.76
2022-11-18T14:41:47.379Z,97731.63
2022-11-18T14:44:16.413Z,97733.20
2022-11-18T14:46:48.892Z,97742.81
2022-11-18T14:49:19.365Z,97739.93
2022-11-18T14:51:48.576Z,97742.27
2022-11-18T14:54:25.433Z,97745.72
2022-11-18T14:57:03.101Z,97748.84
2022-11-18T14:59:31.022Z,97759.64
2022-11-18T15:01:59.838Z,97757.44
2022-11-18T15:04:28.294Z,97766.23
2022-11-18T15:06:56.689Z,97765.24
2022-11-18T15:09:24.778Z,97764.37
2022-11-18T15:11:52.551Z,97775.87
2022-11-18T15:14:20.648Z,97777.27
2022-11-18T15:16:49.015Z,97778.08
2022-11-18T15:19:16.841Z,97778.98
2022-11-18T15:21:47.040Z,97777.63
2022-11-18T15:24:14.879Z,97774.34
2022-11-18T15:26:45.968Z,97773.77
2022-11-18T15:29:22.411Z,97771.44
2022-11-18T15:31:51.593Z,97772.02
2022-11-18T15:34:21.634Z,97779.95
2022-11-18T15:36:50.242Z,97789.06
2022-11-18T15:39:18.015Z,97795.10
2022-11-18T15:41:46.506Z,97796.98
2022-11-18T15:44:18.161Z,97798.23
2022-11-18T15:46:48.321Z,97797.87
2022-11-18T15:49:17.731Z,97798.00
2022-11-18T15:51:45.982Z,97796.33
2022-11-18T15:54:13.735Z,97800.50
2022-11-18T15:56:42.179Z,97804.41
2022-11-18T15:59:12.355Z,97809.58
2022-11-18T16:01:43.293Z,97814.02
2022-11-18T16:04:13.838Z,97816.20
2022-11-18T16:06:43.692Z,97815.30
2022-11-18T16:09:16.492Z,97823.04
2022-11-18T16:12:03.632Z,97821.48
2022-11-18T16:14:33.429Z,97826.81
2022-11-18T16:17:01.205Z,97827.85
2022-11-18T16:19:33.746Z,97828.86
2022-11-18T16:22:01.888Z,97824.09
2022-11-18T16:24:29.769Z,97830.38
2022-11-18T16:26:57.577Z,97831.23
2022-11-18T16:29:25.635Z,97829.11
2022-11-18T16:31:54.964Z,97826.84
2022-11-18T16:34:25.476Z,97825.09
2022-11-18T16:36:59.969Z,97825.42
2022-11-18T16:39:29.563Z,97827.92
2022-11-18T16:42:07.501Z,97822.36
2022-11-18T16:44:37.852Z,97821.26
2022-11-18T16:47:13.906Z,97823.33
2022-11-18T16:49:44.335Z,97824.33
2022-11-18T16:52:12.706Z,97823.27
2022-11-18T16:54:45.154Z,97824.31
2022-11-18T16:57:14.448Z,97825.76
2022-11-18T16:59:42.336Z,97825.50
2022-11-18T17:02:13.221Z,97826.23
2022-11-18T17:04:42.286Z,97827.07
2022-11-18T17:07:10.171Z,97826.70
2022-11-18T17:09:41.955Z,97830.80
2022-11-18T17:12:09.714Z,97832.50
2022-11-18T17:14:38.811Z,97834.06
2022-11-18T17:17:07.929Z,97830.73
2022-11-18T17:19:35.949Z,97834.41
2022-11-18T17:22:04.180Z,97834.41
2022-11-18T17:24:33.139Z,97844.14
2022-11-18T17:27:01.325Z,97845.77
2022-11-18T17:29:29.134Z,97850.98
2022-11-18T17:31:56.852Z,97852.39
2022-11-18T17:34:24.578Z,97851.05
2022-11-18T17:36:52.576Z,97850.80
2022-11-18T17:39:21.115Z,97857.42
2022-11-18T17:42:07.731Z,97860.92
2022-11-18T17:44:35.499Z,97857.91
2022-11-18T17:47:03.366Z,97856.64
2022-11-18T17:49:31.179Z,97853.83
2022-11-18T17:51:58.980Z,97851.70
2022-11-18T17:54:26.822Z,97846.80
2022-11-18T17:56:54.685Z,97842.83
2022-11-18T17:59:23.342Z,97850.86
2022-11-18T18:01:57.311Z,97859.73
2022-11-18T18:04:27.705Z,97860.95
2022-11-18T18:06:55.616Z,97860.40
2022-11-18T18:09:28.838Z,97857.23
2022-11-18T18:12:00.412Z,97851.62
2022-11-18T18:14:28.644Z,97851.67
2022-11-18T18:16:56.477Z,97852.23
2022-11-18T18:19:25.400Z,97858.19
2022-11-18T18:21:53.815Z,97863.03
2022-11-18T18:24:22.477Z,97861.14
2022-11-18T18:26:50.959Z,97862.54
2022-11-18T18:29:18.910Z,97862.79
2022-11-18T18:31:46.664Z,97863.50
2022-11-18T18:34:15.387Z,97866.32
2022-11-18T18:36:43.684Z,97872.95
2022-11-18T18:39:11.411Z,97873.85
2022-11-18T18:41:39.194Z,97876.91
2022-11-18T18:44:07.532Z,97877.84
2022-11-18T18:46:36.967Z,97877.09
2022-11-18T18:49:06.299Z,97876.02
2022-11-18T18:51:42.491Z,97881.21
2022-11-18T18:54:12.817Z,97881.88
2022-11-18T18:56:40.756Z,97889.27
2022-11-18T18:59:09.968Z,97896.36
2022-11-18T19:01:39.444Z,97899.89
2022-11-18T19:04:11.592Z,97901.40
2022-11-18T19:06:53.248Z,97900.88
2022-11-18T19:09:25.324Z,97897.98
2022-11-18T19:12:12.977Z,97898.34
2022-11-18T19:14:41.721Z,97902.20
2022-11-18T19:17:11.619Z,97901.33
2022-11-18T19:20:00.274Z,97902.12
2022-11-18T19:22:33.341Z,97906.22
2022-11-18T19:25:01.962Z,97909.98
2022-11-18T19:27:30.762Z,97912.88
2022-11-18T19:29:58.637Z,97911.08
2022-11-18T19:32:26.456Z,97912.62
2022-11-18T19:34:54.264Z,97910.67
2022-11-18T19:37:22.061Z,97915.83
2022-11-18T19:39:49.900Z,97913.05
2022-11-18T19:42:17.686Z,97914.72
2022-11-18T19:44:45.531Z,97910.33
2022-11-18T19:47:13.277Z,97915.41
2022-11-18T19:49:41.110Z,97914.21
2022-11-18T19:52:09.610Z,97908.38
2022-11-18T19:54:39.153Z,97909.42
2022-11-18T19:57:08.384Z,97910.84
2022-11-18T19:59:36.436Z,97912.79
2022-11-18T20:02:05.265Z,97914.27
2022-11-18T20:04:33.231Z,97917.22
2022-11-18T20:07:01.087Z,97921.95
2022-11-18T20:09:29.405Z,97920.56
2022-11-18T20:11:57.249Z,97919.38
2022-11-18T20:14:25.567Z,97915.36
2022-11-18T20:16:53.366Z,97914.59
2022-11-18T20:19:21.455Z,97911.73
2022-11-18T20:21:49.649Z,97913.52
2022-11-18T20:24:18.997Z,97917.13
2022-11-18T20:26:47.852Z,97919.63
2022-11-18T20:29:15.875Z,97920.45
2022-11-18T20:31:44.112Z,97921.80
2022-11-18T20:34:16.698Z,97931.81
2022-11-18T20:36:45.067Z,97931.95
2022-11-18T20:39:16.753Z,97938.48
2022-11-18T20:42:04.384Z,97938.31
2022-11-18T20:44:32.226Z,97940.56
2022-11-18T20:47:00.481Z,97947.77
2022-11-18T20:49:28.713Z,97943.85
2022-11-18T20:51:56.942Z,97943.17
2022-11-18T20:54:24.720Z,97941.45
2022-11-18T20:56:52.510Z,97938.65
2022-11-18T20:59:20.532Z,97938.30
2022-11-18T21:01:49.503Z,97939.91
2022-11-18T21:04:17.636Z,97941.17
2022-11-18T21:06:46.080Z,97946.48
2022-11-18T21:09:14.662Z,97949.55
2022-11-18T21:11:42.429Z,97949.70
2022-11-18T21:14:25.742Z,97951.54
2022-11-18T21:16:57.755Z,97955.86
2022-11-18T21:19:26.708Z,97957.31
2022-11-18T21:21:56.094Z,97961.92
2022-11-18T21:24:29.027Z,97963.64
2022-11-18T21:26:58.369Z,97963.29
2022-11-18T21:29:28.721Z,97961.77
2022-11-18T21:32:01.691Z,97961.35
2022-11-18T21:34:30.591Z,97963.16
2022-11-18T21:36:58.408Z,97967.91
2022-11-18T21:39:27.571Z,97965.11
2022-11-18T21:41:57.120Z,97963.61
2022-11-18T21:44:28.689Z,97966.71
2022-11-18T21:46:57.946Z,97963.64
2022-11-18T21:49:25.707Z,97961.30
2022-11-18T21:51:53.756Z,97963.75
2022-11-18T21:54:21.530Z,97966.69
2022-11-18T21:56:49.514Z,97961.45
2022-11-18T21:59:18.253Z,97959.79
2022-11-18T22:01:46.578Z,97961.60
2022-11-18T22:04:34.388Z,97968.18
2022-11-18T22:07:02.265Z,97973.21
2022-11-18T22:09:35.882Z,97975.23
2022-11-18T22:12:07.112Z,97978.49
2022-11-18T22:14:36.722Z,97986.14
2022-11-18T22:17:05.241Z,97990.02
2022-11-18T22:19:33.101Z,97987.91
2022-11-18T22:22:01.384Z,97992.02
2022-11-18T22:24:29.152Z,97992.98
2022-11-18T22:26:58.089Z,98001.13
2022-11-18T22:29:26.439Z,98003.33
2022-11-18T22:31:54.841Z,98004.92
2022-11-18T22:34:22.576Z,98005.45
2022-11-18T22:36:50.360Z,98016.08
2022-11-18T22:39:18.392Z,98024.52
2022-11-18T22:42:05.505Z,98025.04
2022-11-18T22:44:33.315Z,98024.31
2022-11-18T22:47:01.079Z,98018.27
2022-11-18T22:49:29.083Z,98017.70
2022-11-18T22:51:57.092Z,98022.98
2022-11-18T22:54:38.866Z,98023.98
2022-11-18T22:57:09.122Z,98022.53
2022-11-18T22:59:37.114Z,98023.34
2022-11-18T23:02:06.104Z,98019.03
2022-11-18T23:04:34.325Z,98023.02
2022-11-18T23:07:02.742Z,98026.48
2022-11-18T23:09:30.981Z,98023.28
2022-11-18T23:12:17.531Z,98031.66
2022-11-18T23:14:46.247Z,98030.05
2022-11-18T23:17:14.668Z,98029.94
2022-11-18T23:19:44.212Z,98026.35
2022-11-18T23:22:13.730Z,98027.75
2022-11-18T23:24:41.631Z,98036.41
2022-11-18T23:27:10.093Z,98039.33
2022-11-18T23:29:37.913Z,98039.14
2022-11-18T23:32:05.747Z,98040.11
2022-11-18T23:34:33.907Z,98039.16
2022-11-18T23:37:01.695Z,98040.38
2022-11-18T23:39:29.754Z,98038.67
2022-11-18T23:41:58.053Z,98040.52
2022-11-18T23:44:45.354Z,98046.48
2022-11-18T23:47:14.495Z,98043.50
2022-11-18T23:49:42.259Z,98044.08
2022-11-18T23:52:10.184Z,98043.41
2022-11-18T23:54:38.076Z,98040.52
2022-11-18T23:57:05.933Z,98048.45
2022-11-18T23:59:33.856Z,98058.30
